Time;durP1;ratioP1;P1;durP2;ratioP2;P2;SDS_P1;SDS_P2;PMS_P1;PMS_P2;Temp;Humidity;BMP_temperature;BMP_pressure;BME280_temperature;BME280_humidity;BME280_pressure;Samples;Min_cycle;Max_cycle;Signal;HPM_P1;HPM_P2
2022/03/01 00:02:17;;;;;;;44.38;25.80;;;4.70;99.90;;;;;;5032903;28;20032;-71
2022/03/01 00:04:43;;;;;;;20.80;12.20;;;4.70;99.90;;;;;;5029723;28;20025;-71
2022/03/01 00:07:09;;;;;;;18.05;10.98;;;4.60;99.90;;;;;;5031519;28;20040;-71
2022/03/01 00:09:35;;;;;;;19.45;11.00;;;4.50;99.90;;;;;;5032684;28;20502;-71
2022/03/01 00:12:01;;;;;;;16.38;9.73;;;4.40;99.90;;;;;;5032153;28;20124;-71
2022/03/01 00:14:27;;;;;;;20.23;12.63;;;4.40;99.90;;;;;;5033509;28;20554;-71
2022/03/01 00:16:54;;;;;;;33.08;27.63;;;4.40;99.90;;;;;;5031918;28;20025;-70
2022/03/01 00:19:20;;;;;;;195.82;92.25;;;4.50;99.90;;;;;;5030208;28;20041;-70
2022/03/01 00:21:46;;;;;;;127.13;65.72;;;4.60;99.90;;;;;;5031733;28;20025;-71
2022/03/01 00:24:12;;;;;;;37.92;27.17;;;4.60;99.90;;;;;;5015935;28;20022;-70
2022/03/01 00:26:39;;;;;;;27.90;21.73;;;4.50;99.90;;;;;;5033621;28;20037;-68
2022/03/01 00:29:04;;;;;;;54.63;35.47;;;4.60;99.90;;;;;;5031065;28;20033;-70
2022/03/01 00:31:31;;;;;;;53.25;35.25;;;4.50;99.90;;;;;;5031509;28;20048;-70
2022/03/01 00:33:57;;;;;;;21.60;16.63;;;4.40;99.90;;;;;;5031544;28;20041;-70
2022/03/01 00:36:23;;;;;;;22.25;15.50;;;4.30;99.90;;;;;;5031538;28;20037;-70
2022/03/01 00:38:48;;;;;;;29.48;19.63;;;4.30;99.90;;;;;;5033036;28;20039;-70
2022/03/01 00:41:14;;;;;;;29.48;19.98;;;4.20;99.90;;;;;;5031577;28;20028;-70
2022/03/01 00:43:40;;;;;;;107.00;67.43;;;4.20;99.90;;;;;;5030610;28;20033;-70
2022/03/01 00:46:06;;;;;;;55.33;38.95;;;4.30;99.90;;;;;;5031252;28;20513;-70
2022/03/01 00:48:32;;;;;;;46.15;33.10;;;4.20;99.90;;;;;;5031393;28;20057;-70
2022/03/01 00:50:58;;;;;;;30.35;25.65;;;4.30;99.90;;;;;;5032146;28;20111;-70
2022/03/01 00:53:23;;;;;;;30.65;22.25;;;4.30;99.90;;;;;;5032894;28;20021;-70
2022/03/01 00:55:49;;;;;;;35.03;24.92;;;4.30;99.90;;;;;;5030940;28;20442;-70
2022/03/01 00:58:15;;;;;;;42.22;31.67;;;4.30;99.90;;;;;;5029558;28;20493;-70
2022/03/01 01:00:41;;;;;;;31.33;24.77;;;4.20;99.90;;;;;;5031189;28;20022;-70
2022/03/01 01:03:07;;;;;;;23.00;19.08;;;4.10;99.90;;;;;;5031307;28;20044;-70
2022/03/01 01:05:33;;;;;;;23.50;18.77;;;4.00;99.90;;;;;;5032950;28;20037;-70
2022/03/01 01:07:58;;;;;;;25.40;19.55;;;3.90;99.90;;;;;;5030936;28;20079;-70
2022/03/01 01:10:24;;;;;;;31.05;23.67;;;3.90;99.90;;;;;;5030517;28;20025;-70
2022/03/01 01:12:50;;;;;;;39.65;30.15;;;4.00;99.90;;;;;;5030941;28;20371;-70
2022/03/01 01:15:18;;;;;;;43.35;34.95;;;4.00;99.90;;;;;;5030891;28;20144;-70
2022/03/01 01:17:44;;;;;;;43.10;32.20;;;4.00;99.90;;;;;;5032924;28;20040;-70
2022/03/01 01:20:10;;;;;;;34.00;28.85;;;4.00;99.90;;;;;;5031183;28;20029;-70
2022/03/01 01:22:39;;;;;;;29.35;24.02;;;4.00;99.90;;;;;;5029467;28;20060;-70
2022/03/01 01:25:13;;;;;;;27.55;21.85;;;4.00;99.90;;;;;;5030418;28;20029;-70
2022/03/01 01:27:40;;;;;;;28.02;22.45;;;4.00;99.90;;;;;;5030734;28;20022;-70
2022/03/01 01:30:08;;;;;;;30.08;22.23;;;4.00;99.90;;;;;;5030722;28;20072;-71
2022/03/01 01:32:34;;;;;;;60.78;44.05;;;4.00;99.90;;;;;;5032315;28;20033;-71
2022/03/01 01:35:00;;;;;;;75.40;51.80;;;4.00;99.90;;;;;;5030294;28;20090;-71
2022/03/01 01:37:26;;;;;;;53.60;37.53;;;4.00;99.90;;;;;;5028899;28;20041;-71
2022/03/01 01:39:51;;;;;;;47.88;35.85;;;3.90;99.90;;;;;;5030351;28;20025;-71
2022/03/01 01:42:17;;;;;;;41.78;31.58;;;3.90;99.90;;;;;;5030275;28;20026;-71
2022/03/01 01:44:44;;;;;;;36.53;28.92;;;3.80;99.90;;;;;;5032297;28;20033;-71
2022/03/01 01:47:10;;;;;;;32.88;26.10;;;3.80;99.90;;;;;;5029005;28;20026;-71
2022/03/01 01:49:35;;;;;;;44.70;32.55;;;3.80;99.90;;;;;;5030317;28;20545;-71
2022/03/01 01:52:01;;;;;;;68.30;43.05;;;3.80;99.90;;;;;;5030217;28;20029;-71
2022/03/01 01:54:28;;;;;;;86.60;52.47;;;3.80;99.90;;;;;;5030141;28;20443;-70
2022/03/01 01:56:54;;;;;;;67.05;43.30;;;3.70;99.90;;;;;;5031154;28;20033;-70
2022/03/01 01:59:20;;;;;;;54.78;38.42;;;3.70;99.90;;;;;;5031249;28;20025;-70
2022/03/01 02:01:46;;;;;;;36.97;26.70;;;3.70;99.90;;;;;;5028816;28;20041;-69
2022/03/01 02:04:12;;;;;;;34.92;24.70;;;3.60;99.90;;;;;;5030026;28;20112;-69
2022/03/01 02:06:48;;;;;;;39.45;29.55;;;3.40;99.90;;;;;;5030522;28;20120;-70
2022/03/01 02:09:14;;;;;;;42.33;30.45;;;3.50;99.90;;;;;;5014133;28;20513;-69
2022/03/01 02:11:40;;;;;;;29.30;20.75;;;3.50;99.90;;;;;;5031849;28;20048;-69
2022/03/01 02:14:05;;;;;;;29.95;23.85;;;3.50;99.90;;;;;;5029845;28;20410;-70
2022/03/01 02:16:32;;;;;;;25.85;17.83;;;3.40;99.90;;;;;;5028358;28;20496;-70
2022/03/01 02:18:58;;;;;;;20.50;15.52;;;3.50;99.90;;;;;;5029935;28;20038;-70
2022/03/01 02:21:24;;;;;;;16.48;12.65;;;3.60;99.90;;;;;;5030087;28;20406;-70
2022/03/01 02:23:49;;;;;;;16.23;12.65;;;3.60;99.90;;;;;;5031216;28;20079;-70
2022/03/01 02:26:15;;;;;;;14.30;11.35;;;3.60;99.90;;;;;;5030365;28;20034;-70
2022/03/01 02:28:40;;;;;;;12.20;8.98;;;3.50;99.90;;;;;;5029918;28;20040;-70
2022/03/01 02:31:06;;;;;;;11.75;8.13;;;3.50;99.90;;;;;;5030181;28;20029;-70
2022/03/01 02:33:32;;;;;;;12.98;8.20;;;3.60;99.90;;;;;;5029985;28;20040;-70
2022/03/01 02:35:58;;;;;;;11.27;7.38;;;3.50;99.90;;;;;;5030022;28;20064;-70
2022/03/01 02:38:24;;;;;;;9.98;6.93;;;3.50;99.90;;;;;;5031163;28;20528;-70
2022/03/01 02:40:49;;;;;;;11.05;7.88;;;3.50;99.90;;;;;;5028394;28;20025;-70
2022/03/01 02:43:16;;;;;;;10.40;7.57;;;3.30;99.90;;;;;;5030088;28;20478;-70
2022/03/01 02:45:43;;;;;;;12.15;9.00;;;3.20;99.90;;;;;;5029890;28;20407;-70
2022/03/01 02:48:09;;;;;;;14.13;10.75;;;3.10;99.90;;;;;;5029652;28;20024;-70
2022/03/01 02:50:34;;;;;;;15.13;11.25;;;3.10;99.90;;;;;;5031538;28;20029;-70
2022/03/01 02:53:00;;;;;;;14.98;11.02;;;3.20;99.90;;;;;;5031087;28;20482;-70
2022/03/01 02:55:26;;;;;;;10.18;8.50;;;3.10;99.90;;;;;;5031941;28;20493;-70
2022/03/01 02:57:51;;;;;;;10.32;8.18;;;3.00;99.90;;;;;;5033467;28;20486;-70
2022/03/01 03:00:17;;;;;;;9.95;7.40;;;3.20;99.90;;;;;;5033535;28;20129;-70
2022/03/01 03:02:43;;;;;;;10.88;7.90;;;3.20;99.90;;;;;;5035629;28;20021;-70
2022/03/01 03:05:10;;;;;;;12.88;7.75;;;3.20;99.90;;;;;;5033469;28;20037;-70
2022/03/01 03:07:36;;;;;;;9.13;7.43;;;3.20;99.90;;;;;;5032995;28;20505;-70
2022/03/01 03:10:02;;;;;;;9.45;6.70;;;3.10;99.90;;;;;;5033250;28;20072;-70
2022/03/01 03:12:28;;;;;;;11.35;7.80;;;3.20;99.90;;;;;;5030197;28;20042;-71
2022/03/01 03:14:54;;;;;;;11.98;7.50;;;3.30;99.90;;;;;;5034526;28;20033;-70
2022/03/01 03:17:20;;;;;;;11.88;7.60;;;3.30;99.90;;;;;;5034221;28;20025;-70
2022/03/01 03:19:45;;;;;;;10.93;7.15;;;3.30;99.90;;;;;;5031695;28;20033;-70
2022/03/01 03:22:11;;;;;;;10.85;7.93;;;3.40;99.90;;;;;;5032763;28;20031;-71
2022/03/01 03:24:37;;;;;;;12.25;7.55;;;3.20;99.90;;;;;;5032897;28;20548;-70
2022/03/01 03:27:03;;;;;;;11.00;7.47;;;3.10;99.90;;;;;;5033086;28;20021;-70
2022/03/01 03:29:28;;;;;;;10.85;7.57;;;3.10;99.90;;;;;;5034782;28;20429;-70
2022/03/01 03:31:57;;;;;;;11.55;8.90;;;3.00;99.90;;;;;;5030337;28;20022;-70
2022/03/01 03:34:23;;;;;;;11.98;9.85;;;2.90;99.90;;;;;;5030938;28;20048;-70
2022/03/01 03:36:50;;;;;;;13.95;8.35;;;2.70;99.90;;;;;;5032584;28;20025;-71
2022/03/01 03:39:16;;;;;;;11.48;8.70;;;2.70;99.90;;;;;;5032715;28;20584;-71
2022/03/01 03:41:41;;;;;;;13.15;8.10;;;2.70;99.90;;;;;;5034595;28;20025;-70
2022/03/01 03:44:07;;;;;;;12.02;7.95;;;2.60;99.90;;;;;;5032755;28;20744;-71
2022/03/01 03:46:34;;;;;;;12.52;9.27;;;2.60;99.90;;;;;;5032769;28;20490;-70
2022/03/01 03:49:00;;;;;;;14.23;7.95;;;2.70;99.90;;;;;;5032372;28;20018;-70
2022/03/01 03:51:26;;;;;;;15.32;7.78;;;2.80;99.90;;;;;;5032538;28;20506;-70
2022/03/01 03:53:52;;;;;;;11.45;8.13;;;2.90;99.90;;;;;;5033572;28;20037;-70
2022/03/01 03:56:18;;;;;;;9.35;7.00;;;2.90;99.90;;;;;;5033315;28;20075;-70
2022/03/01 03:58:44;;;;;;;11.98;7.65;;;2.80;99.90;;;;;;5031684;28;20112;-70
2022/03/01 04:01:11;;;;;;;10.45;7.60;;;2.80;99.90;;;;;;5032270;28;20490;-69
2022/03/01 04:03:37;;;;;;;10.32;7.38;;;2.70;99.90;;;;;;5031800;28;20033;-70
2022/03/01 04:06:03;;;;;;;10.40;7.70;;;2.60;99.90;;;;;;5030041;28;20041;-70
2022/03/01 04:08:29;;;;;;;14.73;9.35;;;2.40;99.90;;;;;;5034334;28;20063;-70
2022/03/01 04:11:00;;;;;;;12.23;9.38;;;2.50;99.90;;;;;;5032082;28;20021;-70
2022/03/01 04:13:26;;;;;;;18.40;8.25;;;2.50;99.90;;;;;;5030477;28;20022;-70
2022/03/01 04:15:52;;;;;;;14.02;9.57;;;2.30;99.90;;;;;;5031970;28;20481;-70
2022/03/01 04:18:17;;;;;;;15.88;9.77;;;2.50;99.90;;;;;;5032206;28;20072;-70
2022/03/01 04:20:44;;;;;;;15.07;10.02;;;2.40;99.90;;;;;;5034051;28;20074;-70
2022/03/01 04:23:10;;;;;;;16.23;11.65;;;2.40;99.90;;;;;;5031725;28;20013;-69
2022/03/01 04:25:35;;;;;;;16.92;11.85;;;2.50;99.90;;;;;;5029221;28;20072;-69
2022/03/01 04:28:01;;;;;;;17.98;14.02;;;2.50;99.90;;;;;;5031785;28;20106;-69
2022/03/01 04:30:27;;;;;;;27.63;18.83;;;2.40;99.90;;;;;;5032298;28;20025;-70
2022/03/01 04:32:54;;;;;;;24.00;16.50;;;2.50;99.90;;;;;;5032615;28;20104;-70
2022/03/01 04:35:20;;;;;;;21.23;15.18;;;2.50;99.90;;;;;;5031986;28;20053;-70
2022/03/01 04:37:45;;;;;;;22.13;13.63;;;2.40;99.90;;;;;;5030673;28;20513;-70
2022/03/01 04:40:13;;;;;;;26.35;16.50;;;2.40;99.90;;;;;;5031591;28;20029;-69
2022/03/01 04:42:40;;;;;;;30.35;17.40;;;2.40;99.90;;;;;;5031503;28;20063;-69
2022/03/01 04:45:06;;;;;;;29.45;16.98;;;2.40;99.90;;;;;;5031664;28;20123;-70
2022/03/01 04:47:33;;;;;;;35.88;19.30;;;2.40;99.90;;;;;;5033486;28;20045;-69
2022/03/01 04:49:59;;;;;;;39.50;22.20;;;2.30;99.90;;;;;;5031097;28;20033;-69
2022/03/01 04:52:25;;;;;;;43.97;22.70;;;2.30;99.90;;;;;;5029880;28;20025;-70
2022/03/01 04:54:51;;;;;;;44.67;23.30;;;2.20;99.90;;;;;;5031396;28;20147;-70
2022/03/01 04:57:17;;;;;;;42.80;22.95;;;2.20;99.90;;;;;;5031482;28;20022;-70
2022/03/01 04:59:43;;;;;;;52.13;26.33;;;2.30;99.90;;;;;;5033065;28;20029;-69
2022/03/01 05:02:08;;;;;;;57.03;28.10;;;2.30;99.90;;;;;;5030663;28;20030;-70
2022/03/01 05:04:34;;;;;;;46.22;21.98;;;2.30;99.90;;;;;;5031041;28;20087;-67
2022/03/01 05:07:00;;;;;;;41.40;22.30;;;2.20;99.90;;;;;;5031189;28;20100;-69
2022/03/01 05:09:26;;;;;;;37.83;20.15;;;2.20;99.90;;;;;;5030723;28;20055;-69
2022/03/01 05:11:52;;;;;;;32.38;16.58;;;2.20;99.90;;;;;;5031536;28;20588;-68
2022/03/01 05:14:18;;;;;;;48.80;24.02;;;2.20;99.90;;;;;;5031274;28;20048;-68
2022/03/01 05:16:46;;;;;;;36.80;19.13;;;2.10;99.90;;;;;;5028249;28;20056;-67
2022/03/01 05:19:13;;;;;;;38.92;19.83;;;2.10;99.90;;;;;;5030069;28;20030;-70
2022/03/01 05:21:39;;;;;;;34.88;19.08;;;2.00;99.90;;;;;;5030960;28;20100;-69
2022/03/01 05:24:05;;;;;;;37.45;17.80;;;2.00;99.90;;;;;;5030488;28;20447;-69
2022/03/01 05:26:31;;;;;;;31.63;16.25;;;1.90;99.90;;;;;;5032378;28;20113;-69
2022/03/01 05:28:57;;;;;;;26.50;14.07;;;1.90;99.90;;;;;;5030491;28;20033;-69
2022/03/01 05:31:23;;;;;;;26.73;14.55;;;2.10;99.90;;;;;;5028524;28;20025;-70
2022/03/01 05:33:49;;;;;;;24.20;13.18;;;1.90;99.90;;;;;;5030397;28;20038;-68
2022/03/01 05:36:16;;;;;;;12.80;8.73;;;1.80;99.90;;;;;;5028828;28;20050;-69
2022/03/01 05:38:43;;;;;;;19.95;11.38;;;1.80;99.90;;;;;;5029873;28;20030;-69
2022/03/01 05:41:08;;;;;;;16.35;10.20;;;1.90;99.90;;;;;;5029788;28;20099;-70
2022/03/01 05:43:35;;;;;;;22.88;11.05;;;2.00;99.90;;;;;;5030015;28;20056;-70
2022/03/01 05:46:01;;;;;;;15.32;8.75;;;2.10;99.90;;;;;;5029982;28;20025;-69
2022/03/01 05:48:27;;;;;;;13.77;7.38;;;2.00;99.90;;;;;;5030184;28;20029;-69
2022/03/01 05:50:53;;;;;;;9.20;6.80;;;1.80;99.90;;;;;;5031468;28;20089;-70
2022/03/01 05:53:19;;;;;;;9.38;6.43;;;1.90;99.90;;;;;;5031188;28;20126;-71
2022/03/01 05:55:45;;;;;;;8.13;6.38;;;1.90;99.90;;;;;;5028562;28;20510;-69
2022/03/01 05:58:11;;;;;;;12.18;7.20;;;1.80;99.90;;;;;;5030008;28;20029;-69
2022/03/01 06:00:37;;;;;;;12.82;7.32;;;1.80;99.90;;;;;;5029716;28;20059;-69
2022/03/01 06:03:03;;;;;;;11.75;7.65;;;1.80;99.90;;;;;;5028945;28;20028;-69
2022/03/01 06:05:29;;;;;;;14.73;8.43;;;1.90;99.90;;;;;;5031757;28;20029;-69
2022/03/01 06:07:56;;;;;;;12.73;7.30;;;1.80;99.90;;;;;;5029972;28;20121;-69
2022/03/01 06:10:22;;;;;;;11.05;7.65;;;1.70;99.90;;;;;;5028746;28;20021;-68
2022/03/01 06:12:48;;;;;;;15.73;8.40;;;1.70;99.90;;;;;;5029930;28;20029;-69
2022/03/01 06:15:14;;;;;;;14.80;8.57;;;1.80;99.90;;;;;;5013408;28;20053;-68
2022/03/01 06:17:40;;;;;;;18.58;8.20;;;1.90;99.90;;;;;;5031770;28;20040;-69
2022/03/01 06:20:10;;;;;;;19.27;10.88;;;2.10;99.90;;;;;;5029950;28;20034;-69
2022/03/01 06:22:37;;;;;;;21.20;10.90;;;2.20;99.90;;;;;;5029500;28;20037;-69
2022/03/01 06:25:03;;;;;;;18.60;12.52;;;2.20;99.90;;;;;;5029418;28;20033;-69
2022/03/01 06:27:29;;;;;;;18.25;11.30;;;2.20;99.90;;;;;;5030674;28;20429;-69
2022/03/01 06:29:54;;;;;;;14.40;9.68;;;2.20;99.90;;;;;;5034355;28;20021;-69
2022/03/01 06:32:20;;;;;;;17.38;11.00;;;2.20;99.90;;;;;;5034765;28;20029;-70
2022/03/01 06:34:46;;;;;;;15.48;10.43;;;2.20;99.90;;;;;;5032474;28;20140;-69
2022/03/01 06:37:15;;;;;;;17.55;12.73;;;2.20;99.90;;;;;;5033341;28;20028;-70
2022/03/01 06:39:42;;;;;;;19.60;12.80;;;2.30;99.90;;;;;;5034221;28;20048;-69
2022/03/01 06:42:09;;;;;;;17.25;11.95;;;2.20;99.90;;;;;;5033605;28;20033;-69
2022/03/01 06:44:35;;;;;;;17.77;11.00;;;2.20;99.90;;;;;;5035022;28;20091;-70
2022/03/01 06:47:02;;;;;;;19.10;9.90;;;2.40;99.90;;;;;;5033788;28;20440;-69
2022/03/01 06:49:28;;;;;;;13.35;9.13;;;2.40;99.90;;;;;;5031967;28;20034;-69
2022/03/01 06:51:54;;;;;;;15.68;9.55;;;2.50;99.90;;;;;;5033379;28;20494;-69
2022/03/01 06:54:19;;;;;;;15.18;9.60;;;2.50;99.90;;;;;;5033845;28;20074;-69
2022/03/01 06:56:46;;;;;;;18.75;9.60;;;2.60;99.90;;;;;;5035265;28;20516;-70
2022/03/01 06:59:16;;;;;;;17.13;9.63;;;2.70;99.90;;;;;;5033153;28;20116;-70
2022/03/01 07:01:42;;;;;;;29.08;10.40;;;3.10;99.90;;;;;;5033122;28;20030;-69
2022/03/01 07:04:07;;;;;;;22.38;10.20;;;3.40;99.90;;;;;;5033204;28;20371;-69
2022/03/01 07:06:33;;;;;;;19.25;9.60;;;3.50;99.90;;;;;;5033597;28;20565;-69
2022/03/01 07:08:59;;;;;;;20.52;10.32;;;3.50;99.90;;;;;;5033611;28;20105;-69
2022/03/01 07:11:26;;;;;;;24.02;13.40;;;3.70;99.90;;;;;;5034770;28;20029;-69
2022/03/01 07:13:52;;;;;;;14.57;8.65;;;4.20;99.90;;;;;;5031286;28;20044;-69
2022/03/01 07:16:18;;;;;;;15.95;9.30;;;4.90;99.90;;;;;;5032836;28;20021;-69
2022/03/01 07:18:44;;;;;;;18.92;10.60;;;5.30;99.90;;;;;;5033015;28;20367;-69
2022/03/01 07:21:09;;;;;;;22.25;10.55;;;5.10;99.90;;;;;;5032909;28;20571;-69
2022/03/01 07:23:36;;;;;;;23.95;14.35;;;5.30;99.90;;;;;;5034690;28;20033;-69
2022/03/01 07:26:04;;;;;;;23.35;15.95;;;5.30;99.90;;;;;;5033082;28;20029;-69
2022/03/01 07:28:30;;;;;;;36.40;22.42;;;5.50;99.90;;;;;;5030749;28;20409;-69
2022/03/01 07:30:56;;;;;;;33.83;24.25;;;5.40;99.90;;;;;;5032645;28;20026;-69
2022/03/01 07:33:22;;;;;;;27.80;16.92;;;5.30;99.90;;;;;;5033114;28;20040;-69
2022/03/01 07:35:47;;;;;;;24.65;14.93;;;5.30;99.90;;;;;;5033970;28;20045;-70
2022/03/01 07:38:13;;;;;;;24.42;15.23;;;5.60;99.90;;;;;;5032729;28;20040;-70
2022/03/01 07:40:39;;;;;;;21.15;13.45;;;6.10;99.90;;;;;;5032574;28;20068;-69
2022/03/01 07:43:07;;;;;;;31.55;16.42;;;6.80;99.90;;;;;;5032125;28;20029;-70
2022/03/01 07:45:36;;;;;;;24.08;14.02;;;7.50;99.90;;;;;;5032421;28;20037;-70
2022/03/01 07:48:03;;;;;;;27.95;16.65;;;7.90;99.90;;;;;;5032684;28;20120;-70
2022/03/01 07:50:31;;;;;;;32.20;18.80;;;8.30;99.90;;;;;;5034105;28;20112;-69
2022/03/01 07:52:57;;;;;;;32.78;20.13;;;8.70;99.90;;;;;;5031016;28;20033;-69
2022/03/01 07:55:23;;;;;;;37.22;20.10;;;9.60;99.90;;;;;;5032139;28;20430;-69
2022/03/01 07:57:49;;;;;;;39.85;20.35;;;10.00;99.90;;;;;;5031982;28;20017;-69
2022/03/01 08:00:15;;;;;;;41.95;20.70;;;10.60;99.90;;;;;;5016921;28;20029;-70
2022/03/01 08:02:42;;;;;;;36.92;19.55;;;11.30;99.90;;;;;;5033897;28;20036;-69
2022/03/01 08:05:09;;;;;;;28.98;14.68;;;11.40;99.90;;;;;;5031970;28;20096;-70
2022/03/01 08:07:35;;;;;;;29.67;15.20;;;10.70;99.90;;;;;;5030788;28;20034;-69
2022/03/01 08:10:02;;;;;;;28.90;13.98;;;10.10;99.90;;;;;;5031961;28;20017;-70
2022/03/01 08:12:28;;;;;;;17.00;8.73;;;10.80;99.90;;;;;;5031645;28;20511;-69
2022/03/01 08:14:54;;;;;;;18.08;7.80;;;11.10;99.90;;;;;;5032777;28;20120;-70
2022/03/01 08:17:20;;;;;;;12.40;6.82;;;11.30;99.90;;;;;;5033195;28;20029;-70
2022/03/01 08:19:49;;;;;;;14.48;6.57;;;12.50;99.90;;;;;;5031793;28;20379;-70
2022/03/01 08:22:15;;;;;;;12.73;6.40;;;14.40;99.90;;;;;;5031759;28;20118;-69
2022/03/01 08:24:41;;;;;;;14.05;6.10;;;15.60;99.90;;;;;;5032208;28;20029;-69
2022/03/01 08:27:07;;;;;;;13.55;6.63;;;15.40;99.90;;;;;;5031519;28;20028;-70
2022/03/01 08:29:34;;;;;;;14.30;6.88;;;14.80;99.90;;;;;;5033497;28;20424;-70
2022/03/01 08:32:00;;;;;;;13.68;7.35;;;13.60;99.90;;;;;;5030327;28;20021;-69
2022/03/01 08:34:26;;;;;;;10.80;7.75;;;14.10;99.90;;;;;;5031335;28;20129;-70
2022/03/01 08:36:52;;;;;;;15.95;7.18;;;13.60;99.90;;;;;;5032073;28;20112;-70
2022/03/01 08:39:18;;;;;;;10.60;6.18;;;13.50;99.90;;;;;;5031687;28;20059;-70
2022/03/01 08:41:44;;;;;;;12.77;6.40;;;13.60;99.90;;;;;;5033272;28;20033;-70
2022/03/01 08:44:11;;;;;;;18.63;9.77;;;13.50;99.90;;;;;;5029974;28;20418;-70
2022/03/01 08:46:37;;;;;;;26.95;14.15;;;13.50;99.90;;;;;;5029841;28;20416;-70
2022/03/01 08:49:03;;;;;;;22.40;12.18;;;13.40;99.90;;;;;;5031439;28;20075;-70
2022/03/01 08:51:28;;;;;;;27.13;10.00;;;13.00;99.90;;;;;;5031049;28;20425;-70
2022/03/01 08:53:54;;;;;;;16.10;7.18;;;13.00;99.90;;;;;;5032168;28;20029;-70
2022/03/01 08:56:21;;;;;;;16.42;7.13;;;12.90;99.90;;;;;;5032222;28;20108;-70
2022/03/01 08:58:48;;;;;;;11.40;6.80;;;13.10;99.90;;;;;;5031438;28;20037;-69
2022/03/01 09:01:14;;;;;;;12.25;6.32;;;13.30;99.90;;;;;;5031436;28;20032;-70
2022/03/01 09:03:40;;;;;;;16.13;6.35;;;13.40;99.90;;;;;;5031115;28;20025;-70
2022/03/01 09:06:06;;;;;;;13.57;6.10;;;13.80;99.90;;;;;;5031158;28;20553;-70
2022/03/01 09:08:33;;;;;;;13.07;5.88;;;13.80;99.90;;;;;;5032964;28;20036;-70
2022/03/01 09:11:00;;;;;;;12.55;6.70;;;14.00;99.90;;;;;;5029804;28;20029;-70
2022/03/01 09:13:26;;;;;;;10.90;5.40;;;14.70;99.90;;;;;;5030771;28;20033;-70
2022/03/01 09:15:52;;;;;;;10.55;4.90;;;14.90;99.90;;;;;;5030886;28;20032;-69
2022/03/01 09:18:17;;;;;;;11.82;4.88;;;15.90;99.90;;;;;;5031076;28;20018;-70
2022/03/01 09:20:43;;;;;;;10.40;4.70;;;16.30;99.90;;;;;;5032748;28;20040;-69
2022/03/01 09:23:09;;;;;;;7.25;3.88;;;15.40;99.90;;;;;;5030329;28;20497;-70
2022/03/01 09:25:35;;;;;;;8.45;4.15;;;15.40;99.90;;;;;;5029182;28;20430;-69
2022/03/01 09:28:00;;;;;;;11.30;4.45;;;15.40;99.90;;;;;;5030926;28;20026;-70
2022/03/01 09:30:26;;;;;;;8.07;4.38;;;16.20;99.90;;;;;;5030650;28;20025;-70
2022/03/01 09:32:52;;;;;;;7.75;4.28;;;17.40;99.90;;;;;;5031949;28;20033;-69
2022/03/01 09:35:17;;;;;;;10.02;4.10;;;18.10;99.90;;;;;;5030962;28;20053;-69
2022/03/01 09:37:43;;;;;;;10.43;4.25;;;18.60;99.90;;;;;;5030484;28;20030;-69
2022/03/01 09:40:11;;;;;;;8.63;4.32;;;19.40;99.90;;;;;;5030398;28;20120;-69
2022/03/01 09:42:38;;;;;;;9.48;4.28;;;19.80;98.90;;;;;;5030330;28;20498;-69
2022/03/01 09:45:04;;;;;;;10.93;4.05;;;19.80;97.40;;;;;;5030747;28;20032;-70
2022/03/01 09:47:30;;;;;;;8.48;4.70;;;19.90;97.30;;;;;;5032342;28;20355;-69
2022/03/01 09:49:56;;;;;;;8.10;4.80;;;19.50;97.60;;;;;;5029473;28;20036;-69
2022/03/01 09:52:22;;;;;;;7.45;4.13;;;19.20;97.30;;;;;;5029883;28;20029;-69
2022/03/01 09:54:49;;;;;;;9.75;4.25;;;19.30;98.20;;;;;;5030343;28;20037;-69
2022/03/01 09:57:17;;;;;;;9.07;4.40;;;20.80;95.80;;;;;;5030439;28;20083;-70
2022/03/01 09:59:43;;;;;;;9.40;4.22;;;20.40;96.10;;;;;;5028002;28;20044;-69
2022/03/01 10:02:09;;;;;;;6.30;4.18;;;21.30;95.80;;;;;;5030262;28;20486;-69
2022/03/01 10:04:54;;;;;;;9.77;4.45;;;21.80;93.00;;;;;;5028549;28;20507;-69
2022/03/01 10:07:31;;;;;;;6.95;4.07;;;21.40;93.40;;;;;;5030027;28;20021;-69
2022/03/01 10:10:10;;;;;;;11.38;4.28;;;22.70;91.90;;;;;;5029942;28;20029;-69
2022/03/01 10:12:36;;;;;;;9.38;4.63;;;22.20;92.00;;;;;;5030089;28;20048;-69
2022/03/01 10:15:09;;;;;;;11.95;4.45;;;22.80;91.60;;;;;;5030175;28;20057;-69
2022/03/01 10:17:41;;;;;;;11.02;4.80;;;22.10;90.90;;;;;;5031802;28;20036;-69
2022/03/01 10:20:10;;;;;;;10.10;4.22;;;21.30;92.50;;;;;;5030044;28;20026;-69
2022/03/01 10:22:57;;;;;;;7.45;4.47;;;22.00;91.40;;;;;;5029618;28;20044;-69
2022/03/01 10:25:25;;;;;;;6.75;4.22;;;21.90;91.30;;;;;;5029689;28;20473;-69
2022/03/01 10:27:53;;;;;;;9.90;4.70;;;22.00;90.60;;;;;;5028628;28;20128;-70
2022/03/01 10:30:38;;;;;;;7.22;4.28;;;21.40;92.20;;;;;;5030086;28;20510;-70
2022/03/01 10:33:15;;;;;;;7.47;4.25;;;22.50;90.40;;;;;;5029978;28;20100;-69
2022/03/01 10:35:43;;;;;;;14.60;4.28;;;21.90;90.20;;;;;;5031454;28;20058;-70
2022/03/01 10:38:11;;;;;;;7.72;3.88;;;22.20;89.60;;;;;;5029893;28;20026;-70
2022/03/01 10:40:38;;;;;;;8.38;3.85;;;22.20;90.40;;;;;;5029568;28;20044;-70
2022/03/01 10:43:14;;;;;;;7.20;3.58;;;21.90;90.00;;;;;;5028654;28;20017;-70
2022/03/01 10:45:44;;;;;;;7.50;3.60;;;22.40;89.90;;;;;;5029720;28;20033;-70
2022/03/01 10:48:12;;;;;;;6.10;3.35;;;22.50;87.70;;;;;;5030232;28;20524;-71
2022/03/01 10:50:39;;;;;;;6.28;3.08;;;22.10;90.50;;;;;;5031187;28;20022;-70
2022/03/01 10:53:06;;;;;;;9.07;4.07;;;23.00;87.70;;;;;;5029446;28;20041;-70
2022/03/01 10:55:33;;;;;;;9.15;3.83;;;22.10;88.50;;;;;;5029552;28;20498;-70
2022/03/01 10:58:05;;;;;;;7.95;3.70;;;22.30;88.30;;;;;;5029743;28;20021;-71
2022/03/01 11:00:36;;;;;;;8.50;3.38;;;23.50;86.60;;;;;;5030061;28;20022;-70
2022/03/01 11:03:04;;;;;;;7.75;3.83;;;23.50;85.60;;;;;;5029963;28;20030;-70
2022/03/01 11:05:31;;;;;;;7.30;3.30;;;23.50;84.80;;;;;;5031096;28;20029;-70
2022/03/01 11:08:03;;;;;;;7.72;3.10;;;23.00;86.10;;;;;;5028271;28;20033;-71
2022/03/01 11:10:31;;;;;;;8.13;3.35;;;22.10;87.00;;;;;;5029282;28;20035;-71
2022/03/01 11:13:00;;;;;;;8.43;3.25;;;22.50;85.20;;;;;;5029540;28;20025;-71
2022/03/01 11:15:38;;;;;;;7.43;3.20;;;22.20;86.60;;;;;;5032862;28;20064;-71
2022/03/01 11:18:30;;;;;;;8.07;3.33;;;21.90;85.40;;;;;;5033222;28;20032;-71
2022/03/01 11:20:57;;;;;;;6.63;3.15;;;21.50;88.20;;;;;;5031306;28;20028;-71
2022/03/01 11:23:26;;;;;;;6.18;2.75;;;21.60;85.90;;;;;;5034557;28;20486;-71
2022/03/01 11:25:53;;;;;;;7.43;3.20;;;21.40;86.30;;;;;;5033129;28;20037;-71
2022/03/01 11:28:30;;;;;;;6.25;2.95;;;21.50;86.30;;;;;;5032779;28;20380;-70
2022/03/01 11:30:56;;;;;;;7.88;3.30;;;21.40;84.70;;;;;;5032845;28;20033;-71
2022/03/01 11:33:35;;;;;;;5.53;2.65;;;21.00;86.50;;;;;;5032989;28;20036;-71
2022/03/01 11:36:03;;;;;;;5.35;2.97;;;21.20;86.00;;;;;;5032398;28;20065;-71
2022/03/01 11:38:32;;;;;;;7.05;3.10;;;21.30;86.80;;;;;;5034376;28;20037;-71
2022/03/01 11:41:19;;;;;;;5.18;2.83;;;21.80;86.70;;;;;;5032436;28;20117;-71
2022/03/01 11:44:00;;;;;;;6.45;3.03;;;22.00;85.80;;;;;;5032612;28;20117;-71
2022/03/01 11:46:26;;;;;;;6.20;3.00;;;21.80;85.20;;;;;;5030918;28;20036;-71
2022/03/01 11:48:55;;;;;;;6.57;3.00;;;21.60;84.80;;;;;;5031935;28;20030;-71
2022/03/01 11:51:41;;;;;;;6.65;3.10;;;21.20;85.90;;;;;;5032153;28;20029;-70
2022/03/01 11:54:12;;;;;;;7.88;3.20;;;21.20;86.80;;;;;;5031965;28;20057;-70
2022/03/01 11:56:39;;;;;;;5.95;3.17;;;20.60;89.30;;;;;;5034125;28;20410;-70
2022/03/01 11:59:07;;;;;;;7.53;2.97;;;20.40;87.10;;;;;;5032581;28;20024;-70
2022/03/01 12:01:33;;;;;;;4.97;2.72;;;20.80;86.50;;;;;;5030634;28;20029;-70
2022/03/01 12:04:05;;;;;;;7.40;3.35;;;21.20;84.80;;;;;;5032107;28;20034;-69
2022/03/01 12:06:33;;;;;;;5.95;2.90;;;21.20;87.50;;;;;;5031831;28;20033;-69
2022/03/01 12:09:02;;;;;;;5.85;2.80;;;21.40;86.10;;;;;;5033114;28;20052;-69
2022/03/01 12:11:55;;;;;;;7.55;3.17;;;21.60;84.50;;;;;;5031387;28;20490;-69
2022/03/01 12:14:23;;;;;;;8.35;2.88;;;22.10;84.00;;;;;;5032890;28;20106;-69
2022/03/01 12:16:49;;;;;;;7.95;2.92;;;21.40;84.80;;;;;;5031816;28;20083;-68
2022/03/01 12:19:19;;;;;;;6.63;2.85;;;21.00;84.70;;;;;;5031654;28;20029;-69
2022/03/01 12:21:53;;;;;;;6.30;4.32;;;21.00;84.40;;;;;;5031644;28;20022;-69
2022/03/01 12:24:20;;;;;;;4.63;2.85;;;20.20;87.10;;;;;;5015140;28;20018;-69
2022/03/01 12:26:55;;;;;;;8.95;5.78;;;20.20;85.00;;;;;;5032084;28;20083;-69
2022/03/01 12:29:25;;;;;;;7.45;2.42;;;20.50;86.50;;;;;;5032959;28;20099;-71
2022/03/01 12:31:56;;;;;;;6.43;2.70;;;20.70;84.80;;;;;;5031453;28;20053;-71
2022/03/01 12:34:26;;;;;;;5.30;2.70;;;20.70;84.80;;;;;;5031141;28;20033;-71
2022/03/01 12:36:59;;;;;;;5.75;2.28;;;19.80;85.80;;;;;;5031481;28;20074;-71
2022/03/01 12:39:27;;;;;;;6.55;2.38;;;20.00;85.90;;;;;;5030334;28;20503;-71
2022/03/01 12:41:53;;;;;;;7.57;2.92;;;20.00;86.20;;;;;;5032854;28;20040;-71